createdAt,value
2019-05-23T00:02:53.855Z,3.47
2019-05-23T00:06:38.966Z,3.23
2019-05-23T00:10:24.358Z,3.50
2019-05-23T00:13:54.722Z,3.50
2019-05-23T00:17:20.903Z,3.63
2019-05-23T00:20:47.340Z,3.03
2019-05-23T00:24:13.934Z,3.23
2019-05-23T00:27:42.816Z,3.30
2019-05-23T00:31:41.281Z,3.63
2019-05-23T00:35:09.986Z,3.10
2019-05-23T00:38:35.691Z,3.57
2019-05-23T00:42:01.357Z,3.47
2019-05-23T00:45:27.121Z,3.10
2019-05-23T00:48:54.549Z,3.20
2019-05-23T00:52:20.290Z,3.23
2019-05-23T00:55:45.875Z,3.47
2019-05-23T00:59:25.920Z,3.77
2019-05-23T01:02:43.030Z,4.03
2019-05-23T01:06:09.197Z,3.80
2019-05-23T01:09:35.381Z,4.50
2019-05-23T01:13:02.702Z,3.83
2019-05-23T01:16:32.141Z,3.60
2019-05-23T01:19:58.944Z,3.97
2019-05-23T01:23:26.359Z,3.67
2019-05-23T01:26:52.979Z,3.50
2019-05-23T01:30:21.157Z,3.73
2019-05-23T01:33:48.280Z,3.77
2019-05-23T01:37:14.170Z,3.47
2019-05-23T01:40:41.322Z,4.07
2019-05-23T01:44:09.749Z,3.80
2019-05-23T01:47:35.534Z,3.83
2019-05-23T01:51:01.762Z,4.10
2019-05-23T01:54:27.443Z,3.70
2019-05-23T01:57:53.955Z,4.03
2019-05-23T02:01:22.823Z,3.50
2019-05-23T02:04:48.583Z,4.40
2019-05-23T02:08:16.635Z,3.80
2019-05-23T02:11:42.931Z,3.80
2019-05-23T02:15:10.063Z,3.97
2019-05-23T02:18:36.345Z,4.07
2019-05-23T02:22:02.523Z,4.07
2019-05-23T02:25:29.151Z,4.07
2019-05-23T02:28:55.270Z,4.13
2019-05-23T02:32:21.910Z,4.27
2019-05-23T02:35:47.584Z,4.30
2019-05-23T02:39:14.867Z,4.23
2019-05-23T02:42:45.040Z,4.10
2019-05-23T02:46:16.777Z,4.17
2019-05-23T02:49:43.101Z,4.27
2019-05-23T02:53:13.275Z,4.17
2019-05-23T02:56:40.064Z,4.20
2019-05-23T03:00:52.379Z,4.10
2019-05-23T03:04:07.120Z,4.40
2019-05-23T03:07:35.378Z,4.60
2019-05-23T03:11:07.188Z,4.30
2019-05-23T03:14:36.260Z,4.50
2019-05-23T03:18:05.567Z,3.77
2019-05-23T03:21:33.983Z,4.93
2019-05-23T03:25:08.555Z,4.63
2019-05-23T03:28:42.731Z,3.83
2019-05-23T03:32:15.906Z,4.40
2019-05-23T03:35:43.444Z,4.47
2019-05-23T03:39:11.764Z,4.40
2019-05-23T03:42:37.524Z,4.23
2019-05-23T03:46:07.850Z,4.13
2019-05-23T03:49:34.457Z,4.07
2019-05-23T03:53:00.145Z,4.60
2019-05-23T03:56:26.741Z,4.43
2019-05-23T03:59:52.359Z,4.27
2019-05-23T04:03:19.384Z,4.70
2019-05-23T04:06:45.148Z,5.10
2019-05-23T04:10:13.227Z,4.40
2019-05-23T04:13:39.266Z,4.23
2019-05-23T04:17:06.483Z,4.20
2019-05-23T04:20:32.791Z,4.80
2019-05-23T04:23:58.706Z,4.07
2019-05-23T04:27:24.554Z,4.57
2019-05-23T04:30:50.269Z,5.20
2019-05-23T04:34:15.874Z,4.60
2019-05-23T04:37:42.316Z,4.90
2019-05-23T04:41:08.196Z,4.13
2019-05-23T04:44:33.889Z,4.30
2019-05-23T04:47:59.467Z,4.57
2019-05-23T04:51:26.289Z,4.57
2019-05-23T04:54:52.033Z,4.63
2019-05-23T04:58:18.134Z,4.63
2019-05-23T05:01:43.804Z,5.23
2019-05-23T05:05:09.748Z,4.40
2019-05-23T05:08:35.632Z,5.57
2019-05-23T05:12:02.112Z,5.80
2019-05-23T05:15:27.709Z,5.70
2019-05-23T05:18:55.308Z,5.70
2019-05-23T05:22:21.739Z,5.63
2019-05-23T05:25:47.349Z,5.23
2019-05-23T05:29:13.290Z,5.97
2019-05-23T05:32:44.564Z,5.87
2019-05-23T05:36:07.302Z,6.03
2019-05-23T05:39:33.562Z,5.83
2019-05-23T05:43:01.158Z,6.03
2019-05-23T05:46:27.231Z,5.97
2019-05-23T05:49:53.489Z,7.80
2019-05-23T05:53:19.488Z,8.03
2019-05-23T05:56:45.133Z,7.40
2019-05-23T06:00:26.245Z,7.23
2019-05-23T06:03:52.570Z,7.47
2019-05-23T06:07:31.900Z,7.87
2019-05-23T06:10:58.037Z,7.77
2019-05-23T06:14:24.132Z,7.93
2019-05-23T06:17:50.628Z,7.47
2019-05-23T06:21:19.180Z,9.83
2019-05-23T06:24:50.543Z,10.23
2019-05-23T06:28:14.147Z,9.17
2019-05-23T06:31:41.532Z,9.33
2019-05-23T06:35:08.466Z,8.27
2019-05-23T06:38:34.304Z,9.03
2019-05-23T06:42:01.219Z,8.83
2019-05-23T06:45:27.528Z,7.83
2019-05-23T06:48:53.119Z,8.33
2019-05-23T06:52:18.990Z,8.27
2019-05-23T06:55:44.662Z,8.10
2019-05-23T06:59:11.772Z,8.20
2019-05-23T07:02:37.944Z,8.40
2019-05-23T07:06:04.389Z,8.93
2019-05-23T07:09:30.073Z,8.03
2019-05-23T07:12:55.665Z,8.33
2019-05-23T07:16:21.715Z,8.53
2019-05-23T07:19:47.570Z,9.10
2019-05-23T07:23:13.839Z,9.40
2019-05-23T07:26:39.708Z,8.90
2019-05-23T07:30:12.633Z,8.20
2019-05-23T07:33:38.471Z,8.80
2019-05-23T07:37:05.051Z,9.00
2019-05-23T07:40:31.296Z,9.47
2019-05-23T07:43:57.082Z,8.67
2019-05-23T07:47:22.865Z,7.93
2019-05-23T07:50:48.880Z,7.50
2019-05-23T07:54:16.199Z,7.73
2019-05-23T07:57:42.365Z,7.70
2019-05-23T08:01:09.626Z,8.20
2019-05-23T08:04:35.389Z,8.40
2019-05-23T08:08:01.319Z,8.60
2019-05-23T08:11:27.337Z,8.07
2019-05-23T08:14:52.984Z,8.20
2019-05-23T08:18:18.714Z,8.43
2019-05-23T08:21:44.483Z,7.33
2019-05-23T08:25:10.328Z,7.13
2019-05-23T08:28:36.445Z,6.87
2019-05-23T08:32:02.953Z,7.27
2019-05-23T08:35:28.641Z,8.00
2019-05-23T08:38:54.776Z,6.70
2019-05-23T08:42:22.438Z,6.90
2019-05-23T08:45:48.258Z,7.10
2019-05-23T08:49:14.675Z,7.20
2019-05-23T08:52:40.749Z,7.97
2019-05-23T08:56:18.064Z,7.43
2019-05-23T08:59:33.773Z,7.30
2019-05-23T09:03:00.472Z,7.90
2019-05-23T09:06:26.705Z,6.87
2019-05-23T09:09:52.336Z,6.13
2019-05-23T09:13:18.304Z,6.20
2019-05-23T09:16:43.956Z,5.93
2019-05-23T09:20:10.506Z,5.43
2019-05-23T09:23:37.691Z,5.73
2019-05-23T09:27:04.026Z,5.70
2019-05-23T09:30:31.558Z,4.60
2019-05-23T09:33:57.324Z,4.77
2019-05-23T09:37:23.019Z,5.77
2019-05-23T09:40:48.619Z,4.80
2019-05-23T09:44:14.495Z,4.50
2019-05-23T09:47:40.124Z,4.30
2019-05-23T09:51:05.799Z,4.33
2019-05-23T09:54:32.935Z,5.10
2019-05-23T09:57:58.532Z,5.23
2019-05-23T10:01:24.457Z,4.23
2019-05-23T10:04:50.321Z,4.70
2019-05-23T10:08:15.954Z,4.70
2019-05-23T10:11:41.555Z,4.77
2019-05-23T10:15:11.898Z,4.10
2019-05-23T10:18:37.839Z,3.90
2019-05-23T10:22:05.472Z,4.37
2019-05-23T10:25:31.725Z,4.47
2019-05-23T10:28:57.329Z,4.62
2019-05-23T10:32:24.025Z,4.85
2019-05-23T10:35:59.720Z,4.30
2019-05-23T10:39:19.988Z,4.05
2019-05-23T10:42:45.810Z,4.28
2019-05-23T10:46:12.180Z,4.08
2019-05-23T10:49:37.785Z,4.00
2019-05-23T10:53:03.658Z,4.30
2019-05-23T10:56:29.514Z,4.22
2019-05-23T10:59:55.104Z,3.60
2019-05-23T11:03:21.293Z,4.08
2019-05-23T11:06:47.429Z,3.75
2019-05-23T11:10:15.263Z,4.53
2019-05-23T11:13:41.379Z,3.65
2019-05-23T11:17:08.272Z,3.52
2019-05-23T11:20:36.180Z,3.75
2019-05-23T11:24:02.103Z,4.50
2019-05-23T11:27:31.166Z,3.70
2019-05-23T11:30:58.349Z,4.15
2019-05-23T11:34:24.631Z,3.80
2019-05-23T11:37:50.247Z,3.52
2019-05-23T11:41:16.351Z,3.37
2019-05-23T11:44:42.110Z,3.42
2019-05-23T11:48:08.696Z,4.10
2019-05-23T11:51:35.878Z,3.45
2019-05-23T11:55:04.074Z,3.47
2019-05-23T11:58:32.680Z,3.50
2019-05-23T12:02:00.551Z,3.70
2019-05-23T12:05:28.168Z,4.60
2019-05-23T12:08:54.107Z,4.33
2019-05-23T12:12:20.032Z,4.00
2019-05-23T12:15:49.463Z,4.42
2019-05-23T12:19:15.327Z,3.77
2019-05-23T12:22:41.808Z,4.08
2019-05-23T12:26:07.392Z,3.75
2019-05-23T12:29:33.730Z,3.75
2019-05-23T12:32:59.405Z,3.42
2019-05-23T12:36:26.464Z,4.10
2019-05-23T12:39:52.656Z,4.17
2019-05-23T12:43:18.256Z,3.40
2019-05-23T12:46:43.856Z,3.90
2019-05-23T12:50:14.789Z,3.80
2019-05-23T12:53:40.788Z,3.67
2019-05-23T12:57:07.916Z,4.00
2019-05-23T13:00:39.988Z,3.55
2019-05-23T13:04:10.081Z,3.87
2019-05-23T13:07:36.790Z,3.30
2019-05-23T13:11:02.635Z,3.25
2019-05-23T13:14:29.258Z,3.58
2019-05-23T13:17:54.849Z,3.67
2019-05-23T13:21:20.468Z,3.37
2019-05-23T13:24:52.678Z,3.42
2019-05-23T13:28:15.266Z,2.90
2019-05-23T13:31:41.176Z,2.85
2019-05-23T13:35:09.941Z,3.02
2019-05-23T13:38:36.413Z,3.47
2019-05-23T13:42:02.201Z,2.58
2019-05-23T13:45:28.267Z,3.40
2019-05-23T13:48:53.885Z,3.42
2019-05-23T13:52:19.652Z,3.05
2019-05-23T13:55:46.400Z,3.12
2019-05-23T13:59:12.207Z,2.98
2019-05-23T14:02:38.352Z,2.85
2019-05-23T14:06:04.518Z,2.95
2019-05-23T14:09:31.054Z,2.90
2019-05-23T14:12:57.088Z,3.20
2019-05-23T14:16:22.769Z,2.50
2019-05-23T14:19:48.639Z,2.80
2019-05-23T14:23:24.982Z,3.02
2019-05-23T14:26:54.963Z,2.77
2019-05-23T14:30:28.631Z,2.83
2019-05-23T14:33:55.864Z,2.60
2019-05-23T14:37:29.440Z,2.45
2019-05-23T14:40:55.312Z,2.25
2019-05-23T14:44:21.484Z,2.40
2019-05-23T14:48:04.127Z,2.17
2019-05-23T14:51:34.404Z,2.05
2019-05-23T14:55:02.052Z,2.08
2019-05-23T14:58:28.205Z,2.35
2019-05-23T15:01:56.203Z,2.10
2019-05-23T15:05:23.129Z,2.40
2019-05-23T15:08:51.517Z,2.58
2019-05-23T15:12:16.112Z,2.33
2019-05-23T15:15:41.866Z,2.75
2019-05-23T15:19:07.680Z,2.50
2019-05-23T15:22:33.328Z,2.62
2019-05-23T15:25:58.964Z,2.55
2019-05-23T15:29:28.855Z,2.08
2019-05-23T15:32:52.670Z,1.98
2019-05-23T15:36:18.706Z,2.60
2019-05-23T15:39:44.412Z,2.25
2019-05-23T15:43:10.395Z,2.25
2019-05-23T15:46:36.711Z,2.20
2019-05-23T15:50:07.153Z,1.90
2019-05-23T15:53:31.199Z,2.58
2019-05-23T15:57:08.160Z,2.17
2019-05-23T16:00:52.503Z,2.37
2019-05-23T16:04:22.956Z,2.80
2019-05-23T16:07:50.181Z,2.17
2019-05-23T16:11:17.648Z,2.58
2019-05-23T16:14:44.496Z,2.25
2019-05-23T16:18:10.157Z,2.33
2019-05-23T16:21:35.866Z,2.58
2019-05-23T16:25:01.586Z,2.30
2019-05-23T16:28:27.952Z,2.30
2019-05-23T16:31:53.855Z,1.95
2019-05-23T16:35:20.445Z,2.47
2019-05-23T16:38:46.038Z,2.80
2019-05-23T16:42:14.825Z,2.83
2019-05-23T16:45:40.499Z,2.58
2019-05-23T16:49:06.394Z,2.80
2019-05-23T16:52:33.404Z,2.30
2019-05-23T16:56:01.158Z,2.55
2019-05-23T16:59:40.430Z,3.00
2019-05-23T17:03:06.147Z,2.75
2019-05-23T17:06:48.683Z,2.83
2019-05-23T17:10:19.438Z,2.70
2019-05-23T17:13:49.732Z,2.80
2019-05-23T17:17:49.047Z,2.85
2019-05-23T17:20:59.208Z,2.92
2019-05-23T17:24:29.824Z,2.52
2019-05-23T17:28:03.744Z,3.30
2019-05-23T17:31:40.532Z,3.50
2019-05-23T17:35:08.150Z,2.95
2019-05-23T17:38:36.482Z,3.58
2019-05-23T17:42:02.679Z,3.40
2019-05-23T17:45:29.240Z,3.05
2019-05-23T17:48:55.048Z,2.83
2019-05-23T17:52:20.705Z,2.92
2019-05-23T17:55:46.631Z,3.05
2019-05-23T17:59:12.767Z,2.75
2019-05-23T18:02:38.538Z,2.72
2019-05-23T18:06:04.740Z,2.80
2019-05-23T18:09:31.185Z,2.80
2019-05-23T18:12:58.514Z,2.55
2019-05-23T18:16:25.102Z,2.70
2019-05-23T18:19:51.653Z,3.33
2019-05-23T18:23:17.866Z,2.70
2019-05-23T18:26:43.542Z,4.08
2019-05-23T18:30:28.753Z,2.70
2019-05-23T18:33:54.904Z,2.95
2019-05-23T18:37:21.398Z,2.90
2019-05-23T18:41:01.739Z,5.92
2019-05-23T18:44:14.680Z,3.25
2019-05-23T18:47:44.092Z,3.25
2019-05-23T18:51:10.619Z,2.95
2019-05-23T18:54:36.730Z,2.83
2019-05-23T18:58:02.430Z,3.42
2019-05-23T19:01:28.126Z,2.67
2019-05-23T19:04:55.260Z,3.05
2019-05-23T19:08:21.035Z,2.83
2019-05-23T19:11:46.834Z,2.87
2019-05-23T19:15:13.601Z,3.30
2019-05-23T19:18:40.050Z,3.20
2019-05-23T19:22:06.076Z,3.20
2019-05-23T19:25:33.425Z,3.35
2019-05-23T19:28:59.160Z,3.20
2019-05-23T19:32:25.234Z,3.70
2019-05-23T19:35:51.122Z,3.30
2019-05-23T19:39:17.115Z,3.15
2019-05-23T19:42:43.143Z,3.25
2019-05-23T19:46:09.135Z,4.12
2019-05-23T19:49:35.074Z,3.45
2019-05-23T19:53:01.041Z,3.70
2019-05-23T19:56:26.804Z,3.58
2019-05-23T19:59:52.693Z,3.25
2019-05-23T20:03:19.737Z,3.42
2019-05-23T20:06:45.788Z,3.05
2019-05-23T20:10:12.787Z,3.40
2019-05-23T20:13:38.403Z,3.62
2019-05-23T20:17:03.999Z,3.27
2019-05-23T20:20:31.611Z,3.40
2019-05-23T20:23:57.281Z,4.00
2019-05-23T20:27:23.842Z,3.97
2019-05-23T20:30:54.592Z,3.63
2019-05-23T20:34:21.709Z,3.97
2019-05-23T20:37:50.612Z,4.00
2019-05-23T20:41:16.553Z,4.20
2019-05-23T20:44:42.139Z,4.40
2019-05-23T20:48:09.681Z,4.10
2019-05-23T20:51:35.652Z,4.33
2019-05-23T20:55:01.895Z,3.77
2019-05-23T20:58:29.060Z,3.97
2019-05-23T21:01:55.671Z,4.20
2019-05-23T21:05:21.552Z,3.80
2019-05-23T21:08:47.158Z,4.40
2019-05-23T21:12:28.896Z,4.60
2019-05-23T21:15:41.034Z,4.10
2019-05-23T21:19:06.964Z,3.83
2019-05-23T21:22:33.766Z,4.17
2019-05-23T21:26:01.006Z,3.77
2019-05-23T21:29:26.737Z,3.67
2019-05-23T21:32:52.558Z,3.67
2019-05-23T21:36:18.427Z,4.07
2019-05-23T21:39:44.820Z,3.73
2019-05-23T21:43:10.560Z,4.20
2019-05-23T21:46:36.787Z,4.20
2019-05-23T21:50:02.429Z,4.40
2019-05-23T21:53:28.229Z,4.60
2019-05-23T21:56:55.364Z,3.93
2019-05-23T22:00:46.279Z,4.13
2019-05-23T22:04:13.719Z,4.27
2019-05-23T22:07:40.283Z,3.80
2019-05-23T22:11:07.492Z,4.70
2019-05-23T22:14:33.074Z,3.93
2019-05-23T22:17:58.745Z,4.20
2019-05-23T22:21:24.578Z,4.00
2019-05-23T22:24:50.239Z,3.67
2019-05-23T22:28:16.114Z,5.10
2019-05-23T22:31:41.732Z,4.87
2019-05-23T22:35:09.570Z,4.30
2019-05-23T22:38:36.498Z,4.23
2019-05-23T22:42:02.463Z,4.63
2019-05-23T22:45:28.840Z,4.00
2019-05-23T22:48:54.498Z,4.30
2019-05-23T22:52:21.128Z,4.30
2019-05-23T22:55:46.723Z,4.10
2019-05-23T22:59:12.331Z,4.37
2019-05-23T23:02:37.934Z,4.23
2019-05-23T23:06:04.076Z,4.53
2019-05-23T23:09:29.990Z,4.63
2019-05-23T23:12:55.597Z,4.27
2019-05-23T23:16:21.431Z,4.87
2019-05-23T23:19:47.034Z,4.00
2019-05-23T23:23:12.792Z,4.77
2019-05-23T23:26:38.393Z,4.27
2019-05-23T23:30:06.190Z,4.33
2019-05-23T23:33:32.171Z,4.83
2019-05-23T23:36:58.404Z,4.50
2019-05-23T23:40:24.360Z,4.67
2019-05-23T23:43:59.170Z,4.13
2019-05-23T23:47:35.565Z,4.47
2019-05-23T23:51:19.260Z,4.10
2019-05-23T23:55:03.145Z,4.40
2019-05-23T23:58:28.395Z,4.70
